Time;durP1;ratioP1;P1;durP2;ratioP2;P2;SDS_P1;SDS_P2;PMS_P1;PMS_P2;Temp;Humidity;BMP_temperature;BMP_pressure;BME280_temperature;BME280_humidity;BME280_pressure;Samples;Min_cycle;Max_cycle;Signal;HPM_P1;HPM_P2
2023/09/23 00:00:49;;;;;;;7.65;5.63;;;14.40;99.90;;;;;;4913094;29;20127;-70
2023/09/23 00:03:16;;;;;;;10.13;6.10;;;14.30;99.90;;;;;;4912025;29;20440;-68
2023/09/23 00:05:44;;;;;;;7.57;6.65;;;14.30;99.90;;;;;;4911390;29;20072;-66
2023/09/23 00:08:11;;;;;;;13.13;7.35;;;14.30;99.90;;;;;;4906472;29;20055;-72
2023/09/23 00:10:38;;;;;;;8.43;7.15;;;14.30;99.90;;;;;;4913202;29;20040;-67
2023/09/23 00:13:06;;;;;;;12.27;7.05;;;14.30;99.90;;;;;;4911981;29;20155;-74
2023/09/23 00:15:35;;;;;;;10.00;7.10;;;14.30;99.90;;;;;;4909066;29;20131;-67
2023/09/23 00:18:02;;;;;;;10.38;7.38;;;14.20;99.90;;;;;;4911904;29;20052;-71
2023/09/23 00:20:29;;;;;;;13.00;8.77;;;14.20;99.90;;;;;;4910247;29;20048;-66
2023/09/23 00:22:56;;;;;;;14.98;9.20;;;14.20;99.90;;;;;;4910198;29;20056;-69
2023/09/23 00:25:23;;;;;;;16.58;9.43;;;14.20;99.90;;;;;;4910008;29;20384;-67
2023/09/23 00:27:54;;;;;;;10.85;9.32;;;14.20;99.90;;;;;;4910580;29;20172;-67
2023/09/23 00:30:22;;;;;;;11.98;8.65;;;14.20;99.90;;;;;;4909259;29;20103;-69
2023/09/23 00:32:50;;;;;;;24.25;11.38;;;14.10;99.90;;;;;;4905267;29;20078;-68
2023/09/23 00:35:18;;;;;;;13.57;9.35;;;14.20;99.90;;;;;;4911754;29;20126;-68
2023/09/23 00:37:48;;;;;;;13.07;9.50;;;14.20;99.90;;;;;;4909159;29;20048;-72
2023/09/23 00:40:27;;;;;;;15.33;9.90;;;14.20;99.90;;;;;;4912964;29;20078;-67
2023/09/23 00:43:05;;;;;;;16.75;10.60;;;14.20;99.90;;;;;;4910268;29;20127;-68
2023/09/23 00:45:36;;;;;;;11.82;8.73;;;14.20;99.90;;;;;;4910626;29;20165;-69
2023/09/23 00:48:08;;;;;;;14.68;10.20;;;14.20;99.90;;;;;;4910749;29;20040;-65
2023/09/23 00:50:35;;;;;;;14.25;10.10;;;14.20;99.90;;;;;;4910135;29;20040;-67
2023/09/23 00:53:04;;;;;;;15.77;9.85;;;14.10;99.90;;;;;;4906182;29;20057;-71
2023/09/23 00:55:39;;;;;;;13.35;9.18;;;14.10;99.90;;;;;;4911606;29;20080;-68
2023/09/23 00:58:07;;;;;;;11.90;7.93;;;14.10;99.90;;;;;;4908223;29;20067;-69
2023/09/23 01:00:35;;;;;;;13.68;8.63;;;14.10;99.90;;;;;;4906241;29;20058;-66
2023/09/23 01:03:02;;;;;;;8.68;7.72;;;14.00;99.90;;;;;;4894318;29;20075;-66
2023/09/23 01:05:30;;;;;;;12.80;9.80;;;14.10;99.90;;;;;;4909863;29;20143;-68
2023/09/23 01:08:04;;;;;;;15.98;9.10;;;14.10;99.90;;;;;;4920134;29;20123;-69
2023/09/23 01:10:31;;;;;;;10.48;9.07;;;14.10;99.90;;;;;;4909717;29;20044;-77
2023/09/23 01:12:59;;;;;;;14.23;8.75;;;14.00;99.90;;;;;;4898869;29;20056;-70
2023/09/23 01:15:28;;;;;;;16.38;9.68;;;14.00;99.90;;;;;;4909901;29;20076;-67
2023/09/23 01:17:56;;;;;;;14.13;10.55;;;14.00;99.90;;;;;;4892786;29;20055;-70
2023/09/23 01:20:25;;;;;;;17.63;8.60;;;14.00;99.90;;;;;;4911935;29;20060;-66
2023/09/23 01:22:54;;;;;;;10.85;8.93;;;14.00;99.90;;;;;;4906350;29;20107;-69
2023/09/23 01:25:22;;;;;;;9.68;8.68;;;14.00;99.90;;;;;;4909106;29;20056;-67
2023/09/23 01:27:49;;;;;;;9.32;8.32;;;14.10;99.90;;;;;;4913030;29;20123;-70
2023/09/23 01:30:16;;;;;;;11.27;7.93;;;14.10;99.90;;;;;;4909097;29;20040;-74
2023/09/23 01:32:51;;;;;;;13.77;9.45;;;14.00;99.90;;;;;;4910919;29;20060;-67
2023/09/23 01:35:20;;;;;;;12.52;8.85;;;14.00;99.90;;;;;;4910867;29;20056;-67
2023/09/23 01:37:48;;;;;;;15.80;9.48;;;14.00;99.90;;;;;;4904455;29;20059;-69
2023/09/23 01:40:17;;;;;;;12.93;7.60;;;14.00;99.90;;;;;;4907247;29;20048;-68
2023/09/23 01:42:49;;;;;;;12.85;9.30;;;14.00;99.90;;;;;;4909243;29;20135;-66
2023/09/23 01:45:16;;;;;;;;;;;14.00;99.90;;;;;;4911338;29;20080;-67
2023/09/23 01:47:44;;;;;;;14.60;9.80;;;14.00;99.90;;;;;;4909541;29;19931;-67
2023/09/23 01:50:13;;;;;;;13.90;8.82;;;14.10;99.90;;;;;;4908972;29;20677;-72
2023/09/23 01:52:43;;;;;;;12.00;9.18;;;14.10;99.90;;;;;;4906734;29;20171;-72
2023/09/23 01:55:12;;;;;;;10.23;8.77;;;14.10;99.90;;;;;;4906976;29;20522;-73
2023/09/23 01:57:39;;;;;;;10.93;9.13;;;14.10;99.90;;;;;;4910572;29;20066;-71
2023/09/23 02:00:08;;;;;;;12.65;8.20;;;14.10;99.90;;;;;;4907054;29;20075;-67
2023/09/23 02:02:42;;;;;;;12.02;10.48;;;14.10;99.90;;;;;;4907793;29;20064;-71
2023/09/23 02:05:09;;;;;;;9.98;8.65;;;14.10;99.90;;;;;;4908032;29;20095;-73
2023/09/23 02:07:36;;;;;;;13.48;9.95;;;14.10;99.90;;;;;;4909573;29;20079;-69
2023/09/23 02:10:03;;;;;;;11.63;7.78;;;14.10;99.90;;;;;;4910482;29;20062;-68
2023/09/23 02:12:32;;;;;;;11.02;7.82;;;14.10;99.90;;;;;;4902742;29;20495;-67
2023/09/23 02:14:59;;;;;;;11.38;7.53;;;14.10;99.90;;;;;;4903860;29;20055;-69
2023/09/23 02:17:26;;;;;;;9.38;7.20;;;14.10;99.90;;;;;;4905119;29;20064;-69
2023/09/23 02:19:53;;;;;;;8.90;7.78;;;14.00;99.90;;;;;;4902526;29;20390;-66
2023/09/23 02:22:20;;;;;;;11.50;7.00;;;14.10;99.90;;;;;;4905488;29;20095;-71
2023/09/23 02:24:48;;;;;;;10.45;7.60;;;14.10;99.90;;;;;;4910301;29;20052;-68
2023/09/23 02:27:16;;;;;;;8.88;7.00;;;14.10;99.90;;;;;;4898087;29;20052;-70
2023/09/23 02:29:43;;;;;;;14.00;7.68;;;14.10;99.90;;;;;;4910298;29;20064;-68
2023/09/23 02:32:11;;;;;;;11.13;7.70;;;14.00;99.90;;;;;;4910963;29;20738;-68
2023/09/23 02:34:38;;;;;;;9.32;7.30;;;14.10;99.90;;;;;;4908495;29;20052;-69
2023/09/23 02:37:06;;;;;;;11.68;7.13;;;14.10;99.90;;;;;;4907569;29;20135;-72
2023/09/23 02:39:33;;;;;;;12.05;7.10;;;14.10;99.90;;;;;;4906122;29;20139;-68
2023/09/23 02:42:00;;;;;;;11.52;9.18;;;14.10;99.90;;;;;;4908257;29;20139;-67
2023/09/23 02:44:30;;;;;;;9.70;8.55;;;14.10;99.90;;;;;;4892356;29;20080;-70
2023/09/23 02:46:57;;;;;;;11.48;8.07;;;14.10;99.90;;;;;;4901169;29;20052;-72
2023/09/23 02:49:24;;;;;;;9.95;6.88;;;14.00;99.90;;;;;;4908780;29;20054;-67
2023/09/23 02:51:51;;;;;;;12.15;8.82;;;14.00;99.90;;;;;;4917510;29;20399;-68
2023/09/23 02:54:17;;;;;;;9.43;8.50;;;14.10;99.90;;;;;;4912205;29;20574;-68
2023/09/23 02:56:46;;;;;;;8.43;7.35;;;14.10;99.90;;;;;;4910557;29;20411;-67
2023/09/23 02:59:15;;;;;;;10.90;7.88;;;14.00;99.90;;;;;;4908625;29;20115;-65
2023/09/23 03:01:49;;;;;;;9.00;7.72;;;14.10;99.90;;;;;;4909060;29;20048;-76
2023/09/23 03:04:21;;;;;;;11.75;7.90;;;14.10;99.90;;;;;;4908138;29;20048;-67
2023/09/23 03:06:50;;;;;;;10.50;7.10;;;14.10;99.90;;;;;;4910718;29;20083;-67
2023/09/23 03:09:25;;;;;;;12.38;8.32;;;14.10;99.90;;;;;;4906475;29;20050;-68
2023/09/23 03:11:56;;;;;;;9.75;7.80;;;14.10;99.90;;;;;;4909643;29;20136;-70
2023/09/23 03:14:28;;;;;;;10.13;7.95;;;14.10;99.90;;;;;;4911228;29;20142;-69
2023/09/23 03:16:57;;;;;;;9.45;7.85;;;14.10;99.90;;;;;;4912485;29;20050;-73
2023/09/23 03:19:25;;;;;;;10.38;9.27;;;14.10;99.90;;;;;;4916981;29;20052;-67
2023/09/23 03:21:55;;;;;;;12.27;9.93;;;14.10;99.90;;;;;;4912856;29;20054;-67
2023/09/23 03:24:25;;;;;;;12.02;8.90;;;14.20;99.90;;;;;;4909359;29;20056;-71
2023/09/23 03:26:58;;;;;;;12.35;9.43;;;14.20;99.90;;;;;;4913151;29;20100;-67
2023/09/23 03:29:30;;;;;;;16.48;11.07;;;14.20;99.90;;;;;;4922272;29;20056;-68
2023/09/23 03:31:59;;;;;;;10.23;8.77;;;14.20;99.90;;;;;;4900102;29;20048;-72
2023/09/23 03:34:27;;;;;;;13.35;10.18;;;14.20;99.90;;;;;;4912596;29;20062;-67
2023/09/23 03:36:54;;;;;;;13.88;10.60;;;14.20;99.90;;;;;;4911351;29;20455;-72
2023/09/23 03:39:22;;;;;;;14.85;11.13;;;14.20;99.90;;;;;;4893536;29;20071;-72
2023/09/23 03:41:49;;;;;;;14.25;11.35;;;14.30;99.90;;;;;;4912734;29;20071;-66
2023/09/23 03:44:16;;;;;;;14.90;10.95;;;14.30;99.90;;;;;;4912210;29;20564;-72
2023/09/23 03:46:47;;;;;;;15.60;12.07;;;14.20;99.90;;;;;;4926004;29;20048;-70
2023/09/23 03:49:14;;;;;;;15.52;11.60;;;14.20;99.90;;;;;;4907969;29;20052;-70
2023/09/23 03:51:41;;;;;;;17.90;11.35;;;14.30;99.90;;;;;;4912357;29;20688;-68
2023/09/23 03:54:08;;;;;;;13.20;10.32;;;14.20;99.90;;;;;;4910043;29;20056;-66
2023/09/23 03:56:35;;;;;;;13.43;11.40;;;14.30;99.90;;;;;;4914332;29;20487;-69
2023/09/23 03:59:05;;;;;;;12.75;9.68;;;14.30;99.90;;;;;;4892583;29;20100;-68
2023/09/23 04:01:33;;;;;;;;;;;14.20;99.90;;;;;;4898829;29;20614;-68
2023/09/23 04:04:02;;;;;;;16.63;12.27;;;14.20;99.90;;;;;;4905306;29;19935;-69
2023/09/23 04:06:30;;;;;;;17.77;12.82;;;14.30;99.90;;;;;;4922266;29;20132;-66
2023/09/23 04:08:58;;;;;;;16.08;11.95;;;14.30;99.90;;;;;;4905405;29;20048;-71
2023/09/23 04:11:26;;;;;;;13.68;11.45;;;14.20;99.90;;;;;;4911438;29;20080;-66
2023/09/23 04:13:54;;;;;;;14.55;12.00;;;14.20;99.90;;;;;;4909347;29;20503;-67
2023/09/23 04:16:21;;;;;;;21.77;14.02;;;14.20;99.90;;;;;;4911966;29;20123;-73
2023/09/23 04:18:51;;;;;;;16.40;12.27;;;14.30;99.90;;;;;;4911897;29;20044;-67
2023/09/23 04:21:20;;;;;;;15.23;11.82;;;14.20;99.90;;;;;;4912457;29;20048;-68
2023/09/23 04:23:50;;;;;;;14.80;11.30;;;14.30;99.90;;;;;;4905782;29;20123;-75
2023/09/23 04:26:21;;;;;;;21.48;12.95;;;14.20;99.90;;;;;;4912578;29;20127;-68
2023/09/23 04:28:51;;;;;;;15.05;11.82;;;14.20;99.90;;;;;;4911140;29;20120;-69
2023/09/23 04:31:19;;;;;;;16.30;12.65;;;14.30;99.90;;;;;;4909361;29;20490;-68
2023/09/23 04:33:47;;;;;;;14.90;11.20;;;14.30;99.90;;;;;;4908678;29;20059;-69
2023/09/23 04:36:14;;;;;;;13.02;11.55;;;14.20;99.90;;;;;;4913945;29;20126;-68
2023/09/23 04:38:43;;;;;;;18.25;12.38;;;14.30;99.90;;;;;;4909547;29;20503;-72
2023/09/23 04:41:10;;;;;;;22.95;13.82;;;14.20;99.90;;;;;;4911697;29;20115;-72
2023/09/23 04:43:39;;;;;;;16.05;12.55;;;14.30;99.90;;;;;;4913178;29;20046;-72
2023/09/23 04:46:06;;;;;;;16.63;13.40;;;14.30;99.90;;;;;;4910986;29;20067;-69
2023/09/23 04:48:34;;;;;;;15.40;11.77;;;14.30;99.90;;;;;;4913470;29;20131;-68
2023/09/23 04:51:00;;;;;;;15.65;13.60;;;14.30;99.90;;;;;;4909248;29;20067;-68
2023/09/23 04:53:28;;;;;;;15.15;11.93;;;14.30;99.90;;;;;;4910172;29;20119;-66
2023/09/23 04:55:55;;;;;;;19.02;15.48;;;14.30;99.90;;;;;;4913627;29;20116;-67
2023/09/23 04:58:22;;;;;;;17.70;12.98;;;14.30;99.90;;;;;;4910168;29;20451;-67
2023/09/23 05:00:51;;;;;;;21.23;13.75;;;14.30;99.90;;;;;;4910527;29;20175;-68
2023/09/23 05:03:19;;;;;;;17.70;13.85;;;14.30;99.90;;;;;;4908527;29;20134;-68
2023/09/23 05:05:46;;;;;;;17.25;14.02;;;14.30;99.90;;;;;;4911881;29;20067;-77
2023/09/23 05:08:13;;;;;;;20.45;14.50;;;14.30;99.90;;;;;;4908419;29;20095;-67
2023/09/23 05:10:41;;;;;;;20.52;14.40;;;14.30;99.90;;;;;;4909106;29;20062;-70
2023/09/23 05:13:08;;;;;;;17.02;13.10;;;14.30;99.90;;;;;;4907775;29;20063;-69
2023/09/23 05:15:35;;;;;;;20.85;15.55;;;14.30;99.90;;;;;;4907095;29;20040;-70
2023/09/23 05:18:03;;;;;;;19.05;13.73;;;14.30;99.90;;;;;;4906217;29;20086;-69
2023/09/23 05:20:30;;;;;;;18.13;14.13;;;14.30;99.90;;;;;;4911274;29;20044;-69
2023/09/23 05:23:02;;;;;;;19.23;14.30;;;14.30;99.90;;;;;;4910019;29;20472;-67
2023/09/23 05:25:29;;;;;;;21.35;15.65;;;14.30;99.90;;;;;;4908641;29;20048;-67
2023/09/23 05:27:56;;;;;;;18.05;13.63;;;14.30;99.90;;;;;;4909945;29;20130;-69
2023/09/23 05:30:26;;;;;;;19.10;14.88;;;14.30;99.90;;;;;;4909586;29;20075;-66
2023/09/23 05:32:53;;;;;;;19.05;14.27;;;14.30;99.90;;;;;;4907778;29;20080;-64
2023/09/23 05:35:20;;;;;;;20.33;15.15;;;14.30;99.90;;;;;;4908141;29;20044;-65
2023/09/23 05:37:47;;;;;;;16.83;13.45;;;14.30;99.90;;;;;;4908738;29;20129;-69
2023/09/23 05:40:26;;;;;;;20.70;14.55;;;14.30;99.90;;;;;;4910726;29;20056;-68
2023/09/23 05:42:54;;;;;;;22.92;15.57;;;14.30;99.90;;;;;;4906854;29;20056;-75
2023/09/23 05:45:24;;;;;;;18.58;14.82;;;14.30;99.90;;;;;;4909984;29;20052;-66
2023/09/23 05:47:52;;;;;;;15.50;13.77;;;14.30;99.90;;;;;;4905740;29;20104;-65
2023/09/23 05:50:20;;;;;;;19.27;14.52;;;14.30;99.90;;;;;;4910115;29;20127;-69
2023/09/23 05:52:48;;;;;;;18.77;14.15;;;14.30;99.90;;;;;;4914053;29;20052;-68
2023/09/23 05:55:15;;;;;;;17.25;14.85;;;14.30;99.90;;;;;;4909840;29;20059;-66
2023/09/23 05:57:43;;;;;;;18.05;11.75;;;14.30;99.90;;;;;;4909886;29;20052;-70
2023/09/23 06:00:12;;;;;;;18.42;13.23;;;14.30;99.90;;;;;;4908197;29;20052;-64
2023/09/23 06:02:39;;;;;;;15.63;13.35;;;14.40;99.90;;;;;;4908353;29;20065;-71
2023/09/23 06:05:06;;;;;;;18.40;16.48;;;14.40;99.90;;;;;;4908500;29;20048;-68
2023/09/23 06:07:33;;;;;;;18.90;13.88;;;14.40;99.90;;;;;;4907036;29;20513;-72
2023/09/23 06:10:00;;;;;;;18.88;14.60;;;14.40;99.90;;;;;;4908936;29;20056;-67
2023/09/23 06:12:31;;;;;;;24.85;16.58;;;14.50;99.90;;;;;;4909286;29;20134;-71
2023/09/23 06:14:58;;;;;;;;;;;14.50;99.90;;;;;;4909446;29;20600;-66
2023/09/23 06:17:27;;;;;;;20.30;15.13;;;14.50;99.90;;;;;;4909257;29;20350;-65
2023/09/23 06:19:59;;;;;;;19.42;14.27;;;14.60;99.90;;;;;;4904340;29;20055;-72
2023/09/23 06:22:27;;;;;;;17.48;13.68;;;14.60;99.90;;;;;;4907257;29;20063;-65
2023/09/23 06:24:54;;;;;;;19.63;14.65;;;14.60;99.90;;;;;;4910665;29;20044;-76
2023/09/23 06:27:21;;;;;;;15.75;13.57;;;14.60;99.90;;;;;;4909249;29;20044;-66
2023/09/23 06:29:48;;;;;;;15.10;13.48;;;14.70;99.90;;;;;;4907630;29;20135;-65
2023/09/23 06:32:15;;;;;;;17.52;14.38;;;14.70;99.90;;;;;;4904730;29;20076;-69
2023/09/23 06:34:42;;;;;;;15.18;12.70;;;14.80;99.90;;;;;;4908243;29;20131;-72
2023/09/23 06:37:09;;;;;;;15.57;13.95;;;14.90;99.90;;;;;;4910453;29;20063;-66
2023/09/23 06:39:36;;;;;;;21.35;13.98;;;14.90;99.90;;;;;;4904774;29;20040;-70
2023/09/23 06:42:03;;;;;;;14.63;12.15;;;14.90;99.90;;;;;;4906115;29;20560;-66
2023/09/23 06:44:30;;;;;;;17.15;13.50;;;15.00;99.90;;;;;;4907623;29;20099;-67
2023/09/23 06:46:57;;;;;;;15.05;12.70;;;15.00;99.90;;;;;;4905835;29;20620;-70
2023/09/23 06:49:27;;;;;;;14.90;13.23;;;15.00;99.90;;;;;;4908406;29;20131;-65
2023/09/23 06:51:54;;;;;;;15.13;11.95;;;15.10;99.90;;;;;;4908437;29;20079;-71
2023/09/23 06:54:21;;;;;;;14.38;12.52;;;15.00;99.90;;;;;;4907408;29;20076;-65
2023/09/23 06:56:48;;;;;;;15.38;13.30;;;15.10;99.90;;;;;;4908339;29;20382;-67
2023/09/23 06:59:15;;;;;;;14.18;11.80;;;15.10;99.90;;;;;;4907204;29;20151;-69
2023/09/23 07:01:42;;;;;;;13.20;11.65;;;15.20;99.90;;;;;;4906697;29;20419;-65
2023/09/23 07:04:09;;;;;;;12.70;11.30;;;15.20;99.90;;;;;;4907824;29;20462;-66
2023/09/23 07:06:36;;;;;;;10.20;9.20;;;15.30;99.90;;;;;;4907782;29;20045;-68
2023/09/23 07:09:04;;;;;;;14.93;11.13;;;15.20;99.90;;;;;;4907447;29;20063;-65
2023/09/23 07:11:32;;;;;;;14.18;10.98;;;15.30;99.90;;;;;;4906430;29;20139;-66
2023/09/23 07:14:00;;;;;;;15.60;11.25;;;15.20;99.90;;;;;;4906384;29;20048;-67
2023/09/23 07:16:27;;;;;;;12.88;10.25;;;15.30;99.90;;;;;;4906616;29;20044;-69
2023/09/23 07:18:54;;;;;;;12.38;10.82;;;15.30;99.90;;;;;;4904433;29;20052;-65
2023/09/23 07:21:21;;;;;;;11.30;10.20;;;15.30;99.90;;;;;;4908864;29;20461;-67
2023/09/23 07:23:48;;;;;;;13.57;9.90;;;15.40;99.90;;;;;;4905215;29;20072;-67
2023/09/23 07:26:20;;;;;;;13.93;10.00;;;15.40;99.90;;;;;;4905938;29;20107;-66
2023/09/23 07:28:50;;;;;;;11.07;9.98;;;15.40;99.90;;;;;;4908161;29;20052;-75
2023/09/23 07:31:18;;;;;;;10.80;8.82;;;15.40;99.90;;;;;;4907289;29;20052;-67
2023/09/23 07:33:45;;;;;;;14.18;11.77;;;15.40;99.90;;;;;;4910534;29;20056;-66
2023/09/23 07:36:13;;;;;;;11.77;10.13;;;15.40;99.90;;;;;;4907697;29;20123;-67
2023/09/23 07:38:40;;;;;;;10.18;9.18;;;15.40;99.90;;;;;;4904909;29;20099;-69
2023/09/23 07:41:07;;;;;;;9.40;8.40;;;15.50;99.90;;;;;;4905827;29;20052;-68
2023/09/23 07:43:34;;;;;;;9.55;8.40;;;15.50;99.90;;;;;;4906537;29;20514;-67
2023/09/23 07:46:01;;;;;;;10.40;9.02;;;15.50;99.90;;;;;;4908573;29;20443;-68
2023/09/23 07:48:28;;;;;;;11.23;8.90;;;15.50;99.90;;;;;;4907328;29;20052;-69
2023/09/23 07:50:55;;;;;;;11.63;8.90;;;15.50;99.90;;;;;;4908421;29;20080;-65
2023/09/23 07:53:22;;;;;;;11.52;8.60;;;15.50;99.90;;;;;;4907500;29;20519;-66
2023/09/23 07:55:49;;;;;;;10.68;9.57;;;15.50;99.90;;;;;;4907647;29;20410;-69
2023/09/23 07:58:16;;;;;;;11.05;8.52;;;15.60;99.90;;;;;;4908512;29;20474;-65
2023/09/23 08:00:43;;;;;;;8.45;7.65;;;15.60;99.90;;;;;;4914011;29;20040;-71
2023/09/23 08:03:10;;;;;;;8.75;6.85;;;15.60;99.90;;;;;;4912438;29;20052;-67
2023/09/23 08:05:37;;;;;;;8.98;7.85;;;15.60;99.90;;;;;;4909655;29;20052;-69
2023/09/23 08:08:05;;;;;;;11.18;7.63;;;15.60;99.90;;;;;;4906504;29;20484;-73
2023/09/23 08:10:33;;;;;;;10.13;7.60;;;15.70;99.90;;;;;;4911475;29;20051;-67
2023/09/23 08:13:00;;;;;;;9.50;7.63;;;15.70;99.90;;;;;;4909592;29;20064;-66
2023/09/23 08:15:26;;;;;;;10.52;7.43;;;15.70;99.90;;;;;;4910989;29;20186;-65
2023/09/23 08:17:53;;;;;;;9.10;6.35;;;15.70;99.90;;;;;;4911043;29;20104;-67
2023/09/23 08:20:22;;;;;;;7.38;6.75;;;15.70;99.90;;;;;;4910707;29;20056;-67
2023/09/23 08:22:50;;;;;;;8.27;7.43;;;15.80;99.90;;;;;;4909088;29;20054;-65
2023/09/23 08:25:17;;;;;;;7.68;6.97;;;15.80;99.90;;;;;;4911664;29;20048;-66
2023/09/23 08:27:46;;;;;;;8.80;8.05;;;15.90;99.90;;;;;;4909125;29;20470;-70
2023/09/23 08:30:17;;;;;;;8.48;6.70;;;15.90;99.90;;;;;;4913335;29;20143;-76
2023/09/23 08:32:44;;;;;;;7.20;6.53;;;16.00;99.90;;;;;;4907331;29;20134;-77
2023/09/23 08:35:11;;;;;;;10.35;7.35;;;16.00;99.90;;;;;;4910813;29;20821;-67
2023/09/23 08:37:38;;;;;;;6.60;5.97;;;16.00;99.90;;;;;;4907702;29;20052;-66
2023/09/23 08:40:11;;;;;;;7.65;6.00;;;16.10;99.90;;;;;;4911557;29;21145;-65
2023/09/23 08:42:39;;;;;;;8.48;7.45;;;16.10;99.90;;;;;;4910666;29;20044;-67
2023/09/23 08:45:09;;;;;;;6.60;5.85;;;16.20;99.90;;;;;;4911750;29;20403;-65
2023/09/23 08:47:37;;;;;;;7.22;6.43;;;16.30;99.90;;;;;;4909855;29;20091;-73
2023/09/23 08:50:08;;;;;;;7.43;5.28;;;16.30;99.90;;;;;;4912381;29;20199;-67
2023/09/23 08:52:36;;;;;;;7.97;5.88;;;16.30;99.90;;;;;;4910518;29;20522;-72
2023/09/23 08:55:04;;;;;;;10.63;6.38;;;16.30;99.90;;;;;;4911228;29;20055;-69
2023/09/23 08:57:31;;;;;;;7.55;6.78;;;16.40;99.90;;;;;;4909526;29;20040;-69
2023/09/23 08:59:58;;;;;;;7.40;5.97;;;16.50;99.90;;;;;;4909256;29;20125;-66
2023/09/23 09:02:25;;;;;;;6.10;5.60;;;16.50;99.90;;;;;;4909440;29;20040;-69
2023/09/23 09:04:57;;;;;;;5.35;4.50;;;16.50;99.90;;;;;;4911541;29;20044;-67
2023/09/23 09:07:35;;;;;;;10.23;7.82;;;16.50;99.90;;;;;;4910736;29;20131;-66
2023/09/23 09:10:04;;;;;;;6.15;5.65;;;16.50;99.90;;;;;;4909683;29;20055;-68
2023/09/23 09:12:32;;;;;;;5.47;4.97;;;16.50;99.90;;;;;;4910679;29;20064;-69
2023/09/23 09:15:00;;;;;;;5.05;4.72;;;16.60;99.90;;;;;;4910455;29;20047;-70
2023/09/23 09:17:27;;;;;;;5.07;4.40;;;16.60;99.90;;;;;;4909561;29;20052;-67
2023/09/23 09:19:53;;;;;;;5.18;4.57;;;16.60;99.90;;;;;;4909327;29;20464;-65
2023/09/23 09:22:20;;;;;;;4.35;3.95;;;16.60;99.90;;;;;;4907671;29;20056;-67
2023/09/23 09:24:47;;;;;;;5.18;4.68;;;16.70;99.90;;;;;;4903552;29;20087;-72
2023/09/23 09:27:15;;;;;;;7.28;4.68;;;16.70;99.90;;;;;;4913355;29;20044;-65
2023/09/23 09:29:43;;;;;;;6.05;4.85;;;16.70;99.90;;;;;;4910250;29;20040;-74
2023/09/23 09:32:11;;;;;;;5.07;4.53;;;16.70;99.90;;;;;;4910289;29;20052;-71
2023/09/23 09:34:48;;;;;;;4.72;4.32;;;16.80;99.90;;;;;;4908753;29;20047;-70
2023/09/23 09:37:15;;;;;;;7.45;4.45;;;16.80;99.90;;;;;;4909550;29;20080;-67
2023/09/23 09:39:51;;;;;;;5.65;5.10;;;16.90;99.90;;;;;;4907009;29;20107;-66
2023/09/23 09:42:28;;;;;;;6.28;5.05;;;16.80;99.90;;;;;;4913597;29;20052;-65
2023/09/23 09:44:57;;;;;;;5.63;4.95;;;16.80;99.90;;;;;;4909456;29;20056;-68
2023/09/23 09:47:24;;;;;;;9.52;6.07;;;16.80;99.90;;;;;;4910694;29;20052;-66
2023/09/23 09:49:52;;;;;;;10.13;8.05;;;16.90;99.90;;;;;;4910266;29;20459;-65
2023/09/23 09:52:22;;;;;;;9.82;7.70;;;16.90;99.90;;;;;;4921375;29;20414;-67
2023/09/23 09:54:55;;;;;;;9.88;7.20;;;16.90;99.90;;;;;;4912042;29;20052;-68
2023/09/23 09:57:23;;;;;;;7.43;6.80;;;16.90;99.90;;;;;;4910512;29;20083;-65
2023/09/23 09:59:53;;;;;;;7.70;6.80;;;17.00;99.90;;;;;;4913679;29;20046;-75
2023/09/23 10:02:23;;;;;;;6.93;5.65;;;17.00;99.90;;;;;;4907973;29;20135;-67
2023/09/23 10:04:53;;;;;;;6.50;4.53;;;17.00;99.90;;;;;;4911065;29;20055;-66
2023/09/23 10:07:23;;;;;;;6.57;5.20;;;16.90;99.90;;;;;;4908781;29;20051;-65
2023/09/23 10:09:53;;;;;;;6.93;6.00;;;16.90;99.90;;;;;;4911878;29;20040;-64
2023/09/23 10:12:31;;;;;;;8.30;6.13;;;16.80;99.90;;;;;;4910992;29;20083;-65
2023/09/23 10:14:58;;;;;;;6.22;5.30;;;16.80;99.90;;;;;;4908315;29;20519;-65
2023/09/23 10:17:33;;;;;;;8.75;5.53;;;16.70;99.90;;;;;;4911300;29;20055;-66
2023/09/23 10:20:01;;;;;;;8.98;4.47;;;16.80;99.90;;;;;;4906045;29;20400;-67
2023/09/23 10:22:29;;;;;;;7.20;5.03;;;16.90;99.90;;;;;;4910899;29;20051;-65
2023/09/23 10:25:03;;;;;;;8.95;5.15;;;17.00;99.90;;;;;;4909323;29;20044;-77
2023/09/23 10:27:31;;;;;;;5.22;4.72;;;17.10;99.90;;;;;;4911182;29;20076;-70
2023/09/23 10:30:00;;;;;;;5.75;5.13;;;17.20;99.90;;;;;;4913531;29;20092;-66
2023/09/23 10:32:26;;;;;;;4.97;3.83;;;17.30;99.90;;;;;;4907568;29;20048;-65
2023/09/23 10:34:58;;;;;;;4.60;4.20;;;17.40;99.90;;;;;;4911364;29;20056;-74
2023/09/23 10:37:30;;;;;;;4.70;4.30;;;17.50;99.90;;;;;;4909702;29;20044;-65
2023/09/23 10:40:09;;;;;;;4.72;3.17;;;17.60;99.90;;;;;;4907352;29;20067;-68
2023/09/23 10:42:36;;;;;;;4.07;3.58;;;17.60;99.90;;;;;;4916022;29;20814;-65
2023/09/23 10:45:03;;;;;;;3.63;3.13;;;17.70;99.90;;;;;;4913633;29;20080;-70
2023/09/23 10:47:30;;;;;;;4.65;3.20;;;17.70;99.90;;;;;;4909022;29;20059;-70
2023/09/23 10:49:59;;;;;;;5.15;2.75;;;17.90;99.90;;;;;;4910369;29;20922;-70
2023/09/23 10:52:26;;;;;;;3.95;3.03;;;17.90;99.90;;;;;;4910453;29;20047;-66
2023/09/23 10:54:54;;;;;;;3.10;2.53;;;18.00;99.90;;;;;;4908214;29;20048;-66
2023/09/23 10:57:21;;;;;;;3.10;2.22;;;18.10;99.90;;;;;;4906452;29;20509;-65
2023/09/23 10:59:50;;;;;;;3.83;2.85;;;18.20;99.90;;;;;;4908917;29;20130;-67
2023/09/23 11:02:19;;;;;;;3.58;3.28;;;18.30;99.90;;;;;;4908160;29;20052;-71
2023/09/23 11:04:48;;;;;;;2.92;1.95;;;18.40;99.90;;;;;;4909692;29;20551;-65
2023/09/23 11:07:16;;;;;;;4.20;2.35;;;18.30;99.90;;;;;;4905982;29;20051;-71
2023/09/23 11:09:45;;;;;;;3.05;2.33;;;18.30;99.90;;;;;;4907143;29;20202;-69
2023/09/23 11:12:13;;;;;;;2.25;1.50;;;18.40;99.90;;;;;;4903075;29;20064;-67
2023/09/23 11:14:48;;;;;;;1.60;1.50;;;18.40;99.90;;;;;;4909878;29;20107;-71
2023/09/23 11:17:25;;;;;;;3.05;1.80;;;18.30;99.90;;;;;;4909126;29;20578;-68
2023/09/23 11:19:59;;;;;;;5.75;1.67;;;18.30;99.90;;;;;;4907785;29;20084;-74
2023/09/23 11:22:28;;;;;;;2.92;1.98;;;18.30;99.90;;;;;;4907212;29;20151;-65
2023/09/23 11:24:56;;;;;;;2.38;1.58;;;18.40;99.90;;;;;;4907371;29;20044;-69
2023/09/23 11:27:24;;;;;;;2.03;1.90;;;18.40;99.90;;;;;;4906771;29;20495;-77
2023/09/23 11:29:52;;;;;;;1.98;1.80;;;18.40;99.90;;;;;;4908194;29;20048;-70
2023/09/23 11:32:21;;;;;;;1.80;1.52;;;18.40;99.90;;;;;;4908098;29;20044;-69
2023/09/23 11:34:50;;;;;;;2.13;1.90;;;18.40;99.90;;;;;;4912177;29;20067;-70
2023/09/23 11:37:18;;;;;;;1.52;1.30;;;18.50;99.90;;;;;;4912663;29;20063;-70
2023/09/23 11:39:44;;;;;;;2.05;1.95;;;18.50;99.90;;;;;;4912847;29;20363;-69
2023/09/23 11:42:11;;;;;;;4.57;1.85;;;18.50;99.90;;;;;;4912098;29;20151;-72
2023/09/23 11:44:38;;;;;;;1.92;1.83;;;18.50;99.90;;;;;;4911816;29;20490;-65
2023/09/23 11:47:05;;;;;;;1.52;1.42;;;18.60;99.90;;;;;;4910094;29;20048;-66
2023/09/23 11:49:33;;;;;;;2.22;1.90;;;18.60;99.90;;;;;;4910685;29;20048;-71
2023/09/23 11:52:00;;;;;;;1.55;1.45;;;18.60;99.90;;;;;;4910308;29;20134;-68
2023/09/23 11:54:28;;;;;;;4.88;2.38;;;18.70;99.90;;;;;;4910324;29;20535;-65
2023/09/23 11:56:55;;;;;;;2.35;1.85;;;18.80;99.90;;;;;;4884418;29;20717;-68
2023/09/23 11:59:23;;;;;;;7.60;1.95;;;18.90;99.90;;;;;;4911712;29;20059;-64
2023/09/23 12:01:50;;;;;;;1.52;1.25;;;19.00;99.90;;;;;;4908217;29;20407;-64
2023/09/23 12:04:17;;;;;;;4.53;1.70;;;18.90;99.90;;;;;;4910853;29;20044;-66
2023/09/23 12:06:45;;;;;;;2.00;1.80;;;18.90;99.90;;;;;;4910387;29;20052;-72
2023/09/23 12:09:12;;;;;;;3.50;1.48;;;19.00;99.90;;;;;;4910183;29;20087;-65
2023/09/23 12:11:39;;;;;;;2.60;2.13;;;19.10;99.90;;;;;;4909463;29;20519;-70
2023/09/23 12:14:08;;;;;;;1.80;1.70;;;19.10;99.90;;;;;;4911666;29;20082;-64
2023/09/23 12:16:37;;;;;;;1.60;1.50;;;19.10;99.90;;;;;;4910790;29;20052;-66
2023/09/23 12:19:04;;;;;;;2.85;1.55;;;19.10;99.90;;;;;;4910950;29;20458;-68
2023/09/23 12:21:31;;;;;;;2.00;1.80;;;19.20;99.90;;;;;;4908365;29;20056;-74
2023/09/23 12:24:02;;;;;;;3.47;2.05;;;19.30;99.90;;;;;;4909256;29;20123;-66
2023/09/23 12:26:31;;;;;;;2.95;1.80;;;19.20;99.90;;;;;;4911416;29;20102;-68
2023/09/23 12:28:58;;;;;;;3.42;1.95;;;19.10;99.90;;;;;;4910638;29;20048;-65
2023/09/23 12:31:25;;;;;;;3.05;1.67;;;19.20;99.90;;;;;;4910578;29;20648;-66
2023/09/23 12:33:51;;;;;;;2.33;1.92;;;19.10;99.90;;;;;;4910360;29;20107;-68
2023/09/23 12:36:18;;;;;;;2.22;1.88;;;19.10;99.90;;;;;;4912835;29;20052;-72
2023/09/23 12:38:46;;;;;;;3.22;2.33;;;19.20;99.90;;;;;;4909246;29;20127;-71
2023/09/23 12:41:14;;;;;;;5.50;2.03;;;19.30;99.90;;;;;;4909389;29;20051;-71
2023/09/23 12:43:41;;;;;;;7.78;3.05;;;19.30;99.90;;;;;;4910830;29;20050;-72